createdAt,value
2019-02-24T00:00:08.925Z,25.1
2019-02-24T00:00:58.578Z,25.1
2019-02-24T00:01:48.440Z,25.1
2019-02-24T00:02:38.967Z,25.1
2019-02-24T00:03:29.020Z,25.1
2019-02-24T00:04:19.050Z,25.1
2019-02-24T00:05:08.582Z,25.1
2019-02-24T00:05:58.905Z,25.1
2019-02-24T00:06:48.941Z,25.1
2019-02-24T00:07:39.797Z,25.1
2019-02-24T00:08:28.784Z,25
2019-02-24T00:09:19.960Z,25
2019-02-24T00:10:09.736Z,24.9
2019-02-24T00:10:59.812Z,24.9
2019-02-24T00:11:50.398Z,25
2019-02-24T00:12:40.405Z,24.9
2019-02-24T00:13:30.482Z,24.9
2019-02-24T00:14:19.456Z,24.9
2019-02-24T00:15:10.062Z,24.9
2019-02-24T00:16:00.132Z,24.9
2019-02-24T00:16:50.438Z,24.8
2019-02-24T00:17:39.919Z,24.9
2019-02-24T00:18:29.959Z,24.8
2019-02-24T00:19:19.769Z,24.8
2019-02-24T00:20:10.371Z,24.8
2019-02-24T00:21:01.022Z,24.8
2019-02-24T00:21:50.234Z,24.8
2019-02-24T00:22:40.803Z,24.8
2019-02-24T00:23:30.885Z,24.7
2019-02-24T00:24:19.814Z,24.7
2019-02-24T00:25:10.519Z,24.7
2019-02-24T00:25:59.996Z,24.7
2019-02-24T00:26:50.823Z,24.7
2019-02-24T00:27:40.734Z,24.7
2019-02-24T00:28:30.456Z,24.6
2019-02-24T00:29:20.831Z,24.6
2019-02-24T00:30:10.874Z,24.6
2019-02-24T00:31:00.080Z,24.6
2019-02-24T00:31:51.044Z,24.6
2019-02-24T00:32:42.599Z,24.6
2019-02-24T00:33:31.141Z,24.5
2019-02-24T00:34:21.128Z,24.6
2019-02-24T00:35:10.949Z,24.5
2019-02-24T00:36:01.301Z,24.6
2019-02-24T00:36:50.471Z,24.5
2019-02-24T00:37:41.610Z,24.5
2019-02-24T00:38:31.623Z,24.4
2019-02-24T00:39:21.488Z,24.4
2019-02-24T00:40:12.048Z,24.4
2019-02-24T00:41:01.793Z,24.4
2019-02-24T00:41:51.883Z,24.4
2019-02-24T00:42:42.247Z,24.4
2019-02-24T00:43:31.726Z,24.4
2019-02-24T00:44:21.816Z,24.4
2019-02-24T00:45:11.303Z,24.4
2019-02-24T00:46:02.133Z,24.4
2019-02-24T00:46:51.766Z,24.3
2019-02-24T00:47:42.573Z,24.4
2019-02-24T00:48:32.919Z,24.3
2019-02-24T00:49:22.672Z,24.3
2019-02-24T00:50:12.441Z,24.3
2019-02-24T00:51:02.756Z,24.3
2019-02-24T00:51:52.335Z,24.2
2019-02-24T00:52:42.323Z,24.3
2019-02-24T00:53:32.664Z,24.3
2019-02-24T00:54:22.260Z,24.2
2019-02-24T00:55:12.325Z,24.3
2019-02-24T00:56:02.887Z,24.3
2019-02-24T00:56:52.322Z,24.2
2019-02-24T00:57:41.918Z,24.1
2019-02-24T00:58:31.981Z,24.1
2019-02-24T00:59:22.858Z,24.1
2019-02-24T01:00:12.617Z,24.1
2019-02-24T01:01:02.144Z,24.1
2019-02-24T01:01:52.990Z,24
2019-02-24T01:02:43.340Z,23.9
2019-02-24T01:03:32.835Z,23.9
2019-02-24T01:04:22.939Z,23.8
2019-02-24T01:05:12.994Z,23.8
2019-02-24T01:06:03.012Z,23.8
2019-02-24T01:06:53.112Z,23.7
2019-02-24T01:07:42.662Z,23.7
2019-02-24T01:08:32.354Z,23.6
2019-02-24T01:09:22.986Z,23.6
2019-02-24T01:10:13.057Z,23.6
2019-02-24T01:11:03.739Z,23.6
2019-02-24T01:11:53.409Z,23.6
2019-02-24T01:12:43.219Z,23.6
2019-02-24T01:13:33.541Z,23.5
2019-02-24T01:14:23.654Z,23.5
2019-02-24T01:15:13.684Z,23.5
2019-02-24T01:16:03.980Z,23.4
2019-02-24T01:16:53.527Z,23.4
2019-02-24T01:17:44.109Z,23.4
2019-02-24T01:18:33.886Z,23.5
2019-02-24T01:19:22.904Z,23.3
2019-02-24T01:20:13.727Z,23.4
2019-02-24T01:21:04.174Z,23.3
2019-02-24T01:21:53.836Z,23.3
2019-02-24T01:22:44.193Z,23.3
2019-02-24T01:23:34.576Z,23.3
2019-02-24T01:24:23.732Z,23.2
2019-02-24T01:25:14.678Z,23.2
2019-02-24T01:26:04.123Z,23.2
2019-02-24T01:26:54.936Z,23.1
2019-02-24T01:27:45.306Z,23.1
2019-02-24T01:28:36.351Z,23.1
2019-02-24T01:29:25.138Z,23.1
2019-02-24T01:30:15.521Z,23.1
2019-02-24T01:31:03.968Z,23
2019-02-24T01:31:54.249Z,23
2019-02-24T01:32:45.608Z,22.9
2019-02-24T01:33:35.138Z,22.9
2019-02-24T01:34:25.771Z,22.9
2019-02-24T01:35:15.576Z,22.9
2019-02-24T01:36:04.498Z,22.9
2019-02-24T01:36:56.180Z,22.9
2019-02-24T01:37:45.715Z,22.8
2019-02-24T01:38:35.513Z,22.9
2019-02-24T01:39:25.230Z,22.8
2019-02-24T01:40:15.385Z,22.8
2019-02-24T01:41:05.328Z,22.8
2019-02-24T01:41:55.515Z,22.8
2019-02-24T01:42:46.030Z,22.8
2019-02-24T01:43:35.784Z,22.7
2019-02-24T01:44:25.408Z,22.6
2019-02-24T01:45:15.993Z,22.6
2019-02-24T01:46:05.432Z,22.6
2019-02-24T01:46:56.107Z,22.6
2019-02-24T01:47:45.633Z,22.6
2019-02-24T01:48:36.395Z,22.4
2019-02-24T01:49:26.065Z,22.5
2019-02-24T01:50:15.537Z,22.5
2019-02-24T01:51:06.594Z,22.4
2019-02-24T01:51:56.187Z,22.4
2019-02-24T01:52:45.990Z,22.4
2019-02-24T01:53:37.027Z,22.4
2019-02-24T01:54:27.164Z,22.3
2019-02-24T01:55:16.326Z,22.3
2019-02-24T01:56:06.122Z,22.3
2019-02-24T01:56:56.797Z,22.2
2019-02-24T01:57:47.039Z,22.3
2019-02-24T01:58:45.914Z,22.1
2019-02-24T01:59:27.859Z,22.2
2019-02-24T02:00:16.978Z,22.1
2019-02-24T02:01:07.026Z,22.1
2019-02-24T02:01:57.324Z,22.1
2019-02-24T02:02:46.851Z,22.1
2019-02-24T02:03:37.244Z,22.1
2019-02-24T02:04:26.967Z,22.1
2019-02-24T02:05:17.026Z,22
2019-02-24T02:06:07.079Z,22
2019-02-24T02:06:57.098Z,22.1
2019-02-24T02:07:48.349Z,21.9
2019-02-24T02:08:38.102Z,21.9
2019-02-24T02:09:27.986Z,21.9
2019-02-24T02:10:18.487Z,21.9
2019-02-24T02:11:07.239Z,21.8
2019-02-24T02:11:57.819Z,21.8
2019-02-24T02:12:48.354Z,21.8
2019-02-24T02:13:38.460Z,21.8
2019-02-24T02:14:27.658Z,21.8
2019-02-24T02:15:18.521Z,21.7
2019-02-24T02:16:08.586Z,21.7
2019-02-24T02:16:58.396Z,21.7
2019-02-24T02:17:47.966Z,21.7
2019-02-24T02:18:38.524Z,21.7
2019-02-24T02:19:28.863Z,21.6
2019-02-24T02:20:18.860Z,21.6
2019-02-24T02:21:08.948Z,21.6
2019-02-24T02:21:59.062Z,21.6
2019-02-24T02:22:49.078Z,21.5
2019-02-24T02:23:37.978Z,21.6
2019-02-24T02:24:28.888Z,21.6
2019-02-24T02:25:17.919Z,21.5
2019-02-24T02:26:07.982Z,21.6
2019-02-24T02:26:57.830Z,21.5
2019-02-24T02:27:48.398Z,21.5
2019-02-24T02:28:47.985Z,21.5
2019-02-24T02:29:27.958Z,21.4
2019-02-24T02:30:18.468Z,21.4
2019-02-24T02:31:08.933Z,21.4
2019-02-24T02:31:58.986Z,21.4
2019-02-24T02:32:49.256Z,21.4
2019-02-24T02:33:39.559Z,21.4
2019-02-24T02:34:28.760Z,21.3
2019-02-24T02:35:19.457Z,21.4
2019-02-24T02:36:09.486Z,21.4
2019-02-24T02:37:00.111Z,21.3
2019-02-24T02:37:49.831Z,21.3
2019-02-24T02:38:39.055Z,21.4
2019-02-24T02:39:30.015Z,21.3
2019-02-24T02:40:20.307Z,21.3
2019-02-24T02:41:10.146Z,21.3
2019-02-24T02:42:00.489Z,21.3
2019-02-24T02:42:49.364Z,21.3
2019-02-24T02:43:40.555Z,21.3
2019-02-24T02:44:30.574Z,21.3
2019-02-24T02:45:20.099Z,21.3
2019-02-24T02:46:10.440Z,21.3
2019-02-24T02:47:00.803Z,21.2
2019-02-24T02:47:50.602Z,21.2
2019-02-24T02:48:40.649Z,21.2
2019-02-24T02:49:30.715Z,21.2
2019-02-24T02:56:13.622Z,21.1
2019-02-24T02:57:01.479Z,21.1
2019-02-24T02:57:51.756Z,21.1
2019-02-24T02:58:40.479Z,21.1
2019-02-24T02:59:31.887Z,21.1
2019-02-24T03:00:20.901Z,21
2019-02-24T03:01:10.592Z,21
2019-02-24T03:02:01.498Z,21
2019-02-24T03:02:51.271Z,21
2019-02-24T03:03:40.521Z,20.9
2019-02-24T03:04:31.663Z,20.9
2019-02-24T03:08:02.849Z,20.9
2019-02-24T03:08:53.466Z,20.9
2019-02-24T03:09:43.784Z,20.9
2019-02-24T03:10:34.533Z,20.9
2019-02-24T03:11:24.721Z,20.9
2019-02-24T03:12:14.168Z,20.9
2019-02-24T03:13:05.059Z,20.9
2019-02-24T03:13:54.312Z,20.8
2019-02-24T03:14:44.400Z,20.8
2019-02-24T03:15:33.039Z,20.8
2019-02-24T03:16:27.235Z,20.8
2019-02-24T03:17:14.045Z,20.8
2019-02-24T03:18:05.153Z,20.8
2019-02-24T03:18:54.990Z,20.8
2019-02-24T03:19:43.889Z,20.8
2019-02-24T03:20:35.243Z,20.8
2019-02-24T03:21:25.218Z,20.8
2019-02-24T03:22:14.885Z,20.8
2019-02-24T03:23:04.386Z,20.8
2019-02-24T03:23:54.770Z,20.8
2019-02-24T03:24:44.800Z,20.8
2019-02-24T03:25:35.365Z,20.8
2019-02-24T03:26:25.224Z,20.8
2019-02-24T03:27:15.491Z,20.7
2019-02-24T03:28:05.637Z,20.7
2019-02-24T03:29:05.572Z,20.7
2019-02-24T03:29:45.689Z,20.7
2019-02-24T03:30:35.933Z,20.7
2019-02-24T03:31:25.528Z,20.7
2019-02-24T03:32:16.254Z,20.7
2019-02-24T03:33:06.131Z,20.6
2019-02-24T03:33:56.232Z,20.6
2019-02-24T03:34:46.754Z,20.6
2019-02-24T03:35:35.737Z,20.6
2019-02-24T03:36:25.887Z,20.6
2019-02-24T03:37:16.124Z,20.6
2019-02-24T03:38:06.459Z,20.6
2019-02-24T03:38:56.506Z,20.6
2019-02-24T03:39:46.585Z,20.6
2019-02-24T03:40:36.082Z,20.6
2019-02-24T03:41:26.654Z,20.6
2019-02-24T03:42:17.336Z,20.6
2019-02-24T03:43:06.765Z,20.6
2019-02-24T03:43:57.251Z,20.6
2019-02-24T03:44:46.959Z,20.6
2019-02-24T03:45:36.966Z,20.6
2019-02-24T03:46:27.026Z,20.5
2019-02-24T03:47:16.797Z,20.6
2019-02-24T03:48:06.840Z,20.6
2019-02-24T03:48:57.475Z,20.5
2019-02-24T03:49:47.233Z,20.6
2019-02-24T03:50:36.481Z,20.5
2019-02-24T03:51:27.360Z,20.5
2019-02-24T03:52:17.663Z,20.4
2019-02-24T03:53:07.571Z,20.5
2019-02-24T03:53:57.551Z,20.5
2019-02-24T03:54:47.646Z,20.4
2019-02-24T03:55:37.929Z,20.5
2019-02-24T03:56:28.289Z,20.5
2019-02-24T03:57:17.763Z,20.5
2019-02-24T03:58:07.873Z,20.5
2019-02-24T03:58:57.878Z,20.4
2019-02-24T03:59:47.933Z,20.4
2019-02-24T04:00:38.010Z,20.4
2019-02-24T04:01:27.240Z,20.4
2019-02-24T04:02:18.345Z,20.4
2019-02-24T04:03:08.188Z,20.4
2019-02-24T04:03:58.231Z,20.4
2019-02-24T04:04:47.963Z,20.4
2019-02-24T04:05:38.593Z,20.4
2019-02-24T04:06:28.438Z,20.4
2019-02-24T04:07:17.875Z,20.4
2019-02-24T04:08:08.336Z,20.3
2019-02-24T04:08:58.882Z,20.4
2019-02-24T04:09:48.930Z,20.4
2019-02-24T04:10:38.121Z,20.4
2019-02-24T04:11:28.445Z,20.4
2019-02-24T04:12:18.785Z,20.4
2019-02-24T04:13:08.854Z,20.4
2019-02-24T04:13:58.122Z,20.4
2019-02-24T04:14:48.996Z,20.4
2019-02-24T04:15:38.714Z,20.3
2019-02-24T04:16:28.457Z,20.4
2019-02-24T04:17:18.544Z,20.3
2019-02-24T04:18:09.485Z,20.3
2019-02-24T04:18:58.595Z,20.3
2019-02-24T04:19:49.367Z,20.3
2019-02-24T04:20:39.333Z,20.3
2019-02-24T04:21:29.688Z,20.3
2019-02-24T04:22:19.469Z,20.3
2019-02-24T04:23:08.386Z,20.3
2019-02-24T04:23:59.847Z,20.3
2019-02-24T04:24:49.607Z,20.3
2019-02-24T04:25:39.148Z,20.3
2019-02-24T04:26:29.475Z,20.3
2019-02-24T04:27:21.876Z,20.3
2019-02-24T04:28:09.607Z,20.3
2019-02-24T04:29:00.512Z,20.3
2019-02-24T04:29:49.954Z,20.3
2019-02-24T04:30:39.359Z,20.3
2019-02-24T04:31:30.433Z,20.3
2019-02-24T04:32:20.409Z,20.3
2019-02-24T04:33:10.468Z,20.3
2019-02-24T04:34:00.267Z,20.3
2019-02-24T04:34:50.041Z,20.3
2019-02-24T04:35:40.173Z,20.3
2019-02-24T04:36:30.151Z,20.3
2019-02-24T04:37:20.160Z,20.3
2019-02-24T04:38:10.260Z,20.3
2019-02-24T04:38:59.784Z,20.2
2019-02-24T04:39:49.812Z,20.3
2019-02-24T04:40:40.686Z,20.3
2019-02-24T04:41:30.288Z,20.2
2019-02-24T04:42:20.889Z,20.2
2019-02-24T04:43:11.107Z,20.3
2019-02-24T04:44:00.932Z,20.2
2019-02-24T04:44:50.973Z,20.3
2019-02-24T04:45:40.998Z,20.2
2019-02-24T04:46:30.015Z,20.2
2019-02-24T04:47:21.426Z,20.2
2019-02-24T04:48:10.458Z,20.2
2019-02-24T04:49:00.824Z,20.2
2019-02-24T04:49:50.835Z,20.2
2019-02-24T04:50:40.705Z,20.1
2019-02-24T04:51:31.018Z,20.1
2019-02-24T04:52:20.436Z,20.2
2019-02-24T04:53:11.128Z,20.2
2019-02-24T04:54:00.555Z,20.2
2019-02-24T04:54:51.226Z,20.1
2019-02-24T04:55:42.011Z,20.2
2019-02-24T04:56:31.827Z,20.2
2019-02-24T04:57:21.836Z,20.2
2019-02-24T04:58:11.633Z,20.1
2019-02-24T04:59:01.947Z,20.1
2019-02-24T04:59:52.384Z,20.1
2019-02-24T05:00:42.030Z,20.1
2019-02-24T05:01:32.357Z,20.1
2019-02-24T05:02:22.460Z,20.1
2019-02-24T05:03:12.538Z,20.1
2019-02-24T05:04:02.285Z,20.1
2019-02-24T05:04:51.873Z,20.1
2019-02-24T05:05:42.433Z,20.1
2019-02-24T05:06:31.968Z,20.1
2019-02-24T05:07:21.470Z,20.1
2019-02-24T05:08:12.369Z,20.1
2019-02-24T05:09:02.477Z,20.1
2019-02-24T05:09:51.907Z,20.1
2019-02-24T05:10:42.277Z,20.1
2019-02-24T05:11:32.320Z,20.1
2019-02-24T05:12:22.344Z,20.1
2019-02-24T05:13:12.264Z,20.1
2019-02-24T05:14:02.206Z,20.1
2019-02-24T05:14:52.552Z,20.1
2019-02-24T05:15:42.021Z,20.1
2019-02-24T05:16:32.415Z,20.1
2019-02-24T05:17:23.303Z,20.1
2019-02-24T05:18:12.493Z,20.1
2019-02-24T05:19:03.357Z,20.1
2019-02-24T05:19:53.938Z,20.1
2019-02-24T05:20:43.940Z,20.1
2019-02-24T05:21:34.042Z,20.1
2019-02-24T05:22:23.268Z,20.1
2019-02-24T05:23:13.618Z,20.1
2019-02-24T05:24:03.690Z,20
2019-02-24T05:24:53.426Z,20.1
2019-02-24T05:25:43.258Z,20
2019-02-24T05:26:33.830Z,20.1
2019-02-24T05:27:23.030Z,20
2019-02-24T05:28:13.961Z,20
2019-02-24T05:29:04.048Z,20
2019-02-24T05:29:57.187Z,20
2019-02-24T05:30:43.902Z,20
2019-02-24T05:31:34.128Z,20
2019-02-24T05:32:23.990Z,20
2019-02-24T05:33:14.312Z,20
2019-02-24T05:34:03.787Z,20
2019-02-24T05:34:55.055Z,20
2019-02-24T05:35:44.456Z,20
2019-02-24T05:36:37.262Z,19.9
2019-02-24T05:37:24.864Z,19.9
2019-02-24T05:38:14.366Z,20
2019-02-24T05:39:04.435Z,19.9
2019-02-24T05:39:54.726Z,19.9
2019-02-24T05:40:44.801Z,19.9
2019-02-24T05:41:35.150Z,19.9
2019-02-24T05:42:25.176Z,21.6
2019-02-24T05:43:15.536Z,21.3
2019-02-24T05:44:04.754Z,21.4
2019-02-24T05:44:55.408Z,21.6
2019-02-24T05:45:44.931Z,21.6
2019-02-24T05:46:35.182Z,21.7
2019-02-24T05:47:24.777Z,22.3
2019-02-24T05:48:15.591Z,22.9
2019-02-24T05:49:05.613Z,23.6
2019-02-24T05:49:55.411Z,24.1
2019-02-24T05:50:45.201Z,24.6
2019-02-24T05:51:34.739Z,24.9
2019-02-24T05:52:25.575Z,25.1
2019-02-24T05:53:14.578Z,25.3
2019-02-24T05:54:05.172Z,25.4
2019-02-24T05:54:57.972Z,25.4
2019-02-24T05:55:46.048Z,25.5
2019-02-24T05:56:36.414Z,25.5
2019-02-24T05:57:25.636Z,25.4
2019-02-24T05:58:15.553Z,25.3
2019-02-24T05:59:06.279Z,25.3
2019-02-24T06:00:06.178Z,25.1
2019-02-24T06:00:45.860Z,24.9
2019-02-24T06:01:36.233Z,24.8
2019-02-24T06:02:26.283Z,24.5
2019-02-24T06:03:15.876Z,24.3
2019-02-24T06:06:04.481Z,23.8
2019-02-24T06:06:53.230Z,23.6
2019-02-24T06:07:44.436Z,23.6
2019-02-24T06:08:34.060Z,23.4
2019-02-24T06:09:23.883Z,23.4
2019-02-24T06:10:14.153Z,23.3
2019-02-24T06:11:04.293Z,23.2
2019-02-24T06:11:54.620Z,23.1
2019-02-24T06:12:44.903Z,23
2019-02-24T06:13:34.127Z,23
2019-02-24T06:14:23.350Z,22.9
2019-02-24T06:15:14.345Z,22.8
2019-02-24T06:16:04.065Z,22.8
2019-02-24T06:16:53.798Z,22.8
2019-02-24T06:17:45.009Z,22.8
2019-02-24T06:18:34.290Z,22.6
2019-02-24T06:19:24.650Z,22.6
2019-02-24T06:20:14.377Z,22.6
2019-02-24T06:21:04.133Z,22.5
2019-02-24T06:21:54.664Z,22.5
2019-02-24T06:22:44.209Z,22.4
2019-02-24T06:23:35.657Z,22.4
2019-02-24T06:24:24.624Z,22.4
2019-02-24T06:25:14.972Z,22.3
2019-02-24T06:26:05.860Z,22.4
2019-02-24T06:26:55.913Z,22.3
2019-02-24T06:27:45.897Z,22.3
2019-02-24T06:28:35.755Z,22.3
2019-02-24T06:29:25.471Z,22.3
2019-02-24T06:30:16.412Z,22.1
2019-02-24T06:31:05.902Z,22.2
2019-02-24T06:31:55.368Z,22.2
2019-02-24T06:32:45.489Z,22.2
2019-02-24T06:33:36.295Z,22.1
2019-02-24T06:34:25.526Z,22.1
2019-02-24T06:35:15.875Z,22.1
2019-02-24T06:36:05.137Z,22.1
2019-02-24T06:36:54.909Z,22
2019-02-24T06:37:45.774Z,22.1
2019-02-24T06:38:36.621Z,22
2019-02-24T06:39:26.236Z,22.1
2019-02-24T06:40:15.731Z,22
2019-02-24T06:41:07.936Z,21.9
2019-02-24T06:41:56.291Z,21.9
2019-02-24T06:42:45.804Z,21.9
2019-02-24T06:43:34.823Z,21.9
2019-02-24T06:44:26.218Z,21.9
2019-02-24T06:45:15.726Z,21.9
2019-02-24T06:46:05.228Z,21.9
2019-02-24T06:46:58.263Z,21.9
2019-02-24T06:47:47.367Z,21.9
2019-02-24T06:48:37.141Z,21.8
2019-02-24T06:49:26.066Z,21.8
2019-02-24T06:50:16.940Z,21.8
2019-02-24T06:51:06.747Z,21.8
2019-02-24T06:51:57.119Z,21.8
2019-02-24T06:52:47.284Z,21.8
2019-02-24T06:53:36.357Z,21.8
2019-02-24T06:54:26.862Z,21.8
2019-02-24T06:55:16.432Z,21.8
2019-02-24T06:56:06.786Z,21.8
2019-02-24T06:56:57.027Z,21.7
2019-02-24T06:57:47.125Z,21.7
2019-02-24T06:58:35.878Z,21.7
2019-02-24T06:59:26.510Z,21.7
2019-02-24T07:00:24.357Z,21.7
2019-02-24T07:01:06.903Z,21.7
2019-02-24T07:01:56.056Z,21.7
2019-02-24T07:02:47.495Z,21.6
2019-02-24T07:03:37.372Z,21.6
2019-02-24T07:06:03.208Z,21.6
2019-02-24T07:06:52.519Z,21.6
2019-02-24T07:07:43.093Z,21.6
2019-02-24T07:08:32.381Z,21.6
2019-02-24T07:09:25.222Z,21.6
2019-02-24T07:10:13.572Z,21.6
2019-02-24T07:11:02.782Z,21.6
2019-02-24T07:11:52.874Z,21.6
2019-02-24T07:12:42.976Z,21.6
2019-02-24T07:13:33.984Z,21.6
2019-02-24T07:14:22.736Z,21.5
2019-02-24T07:15:13.164Z,21.6
2019-02-24T07:16:03.159Z,21.6
2019-02-24T07:16:53.627Z,21.6
2019-02-24T07:17:44.774Z,21.6
2019-02-24T07:18:34.820Z,21.6
2019-02-24T07:19:24.026Z,21.8
2019-02-24T07:20:15.739Z,22.4
2019-02-24T07:21:05.519Z,23.1
2019-02-24T07:21:55.581Z,23.8
2019-02-24T07:22:44.996Z,24.3
2019-02-24T07:23:35.624Z,24.6
2019-02-24T07:24:25.721Z,25
2019-02-24T07:25:14.988Z,25.2
2019-02-24T07:26:05.289Z,25.4
2019-02-24T07:26:55.576Z,25.4
2019-02-24T07:27:45.359Z,25.5
2019-02-24T07:28:35.658Z,25.5
2019-02-24T07:29:26.306Z,25.5
2019-02-24T07:30:24.664Z,25.4
2019-02-24T07:31:06.216Z,25.3
2019-02-24T07:31:55.923Z,25.2
2019-02-24T07:32:46.263Z,25.1
2019-02-24T07:33:36.663Z,24.9
2019-02-24T07:34:25.923Z,24.8
2019-02-24T07:35:16.746Z,24.6
2019-02-24T07:36:05.778Z,24.4
2019-02-24T07:36:56.621Z,24.4
2019-02-24T07:37:45.536Z,24.8
2019-02-24T07:38:36.662Z,25.3
2019-02-24T07:39:26.756Z,25.6
2019-02-24T07:40:17.051Z,25.9
2019-02-24T07:41:06.565Z,26.2
2019-02-24T07:41:56.572Z,26.3
2019-02-24T07:42:47.212Z,26.4
2019-02-24T07:43:36.000Z,26.5
2019-02-24T07:44:26.313Z,26.5
2019-02-24T07:45:16.832Z,26.5
2019-02-24T07:46:05.802Z,26.4
2019-02-24T07:46:55.340Z,26.4
2019-02-24T07:47:46.423Z,26.2
2019-02-24T07:48:36.775Z,26.1
2019-02-24T07:49:26.602Z,25.9
2019-02-24T07:50:16.695Z,25.8
2019-02-24T07:51:06.419Z,25.6
2019-02-24T07:51:57.609Z,25.4
2019-02-24T07:52:46.830Z,25.6
2019-02-24T07:53:37.355Z,26
2019-02-24T07:54:27.442Z,26.3
2019-02-24T07:55:17.772Z,26.6
2019-02-24T07:56:06.782Z,26.8
2019-02-24T07:56:57.662Z,26.9
2019-02-24T07:57:47.784Z,27.1
2019-02-24T07:58:37.782Z,27.1
2019-02-24T07:59:26.746Z,27.1
2019-02-24T08:00:16.512Z,27.1
2019-02-24T08:01:07.424Z,27.1
2019-02-24T08:01:57.257Z,26.9
2019-02-24T08:02:47.610Z,26.8
2019-02-24T08:03:37.589Z,26.8
2019-02-24T08:04:27.645Z,26.6
2019-02-24T08:05:32.886Z,26.4
2019-02-24T08:06:08.284Z,26.4
2019-02-24T08:06:58.327Z,26.6
2019-02-24T08:07:48.361Z,26.9
2019-02-24T08:08:38.387Z,27.2
2019-02-24T08:09:27.961Z,27.4
2019-02-24T08:10:18.496Z,27.5
2019-02-24T08:11:08.828Z,27.6
2019-02-24T08:11:58.948Z,27.6
2019-02-24T08:12:48.399Z,27.7
2019-02-24T08:13:38.149Z,27.6
2019-02-24T08:14:29.091Z,27.6
2019-02-24T08:15:18.896Z,27.5
2019-02-24T08:16:09.222Z,27.4
2019-02-24T08:16:58.749Z,27.3
2019-02-24T08:17:48.776Z,27.2
2019-02-24T08:18:39.126Z,27.2
2019-02-24T08:19:31.050Z,27.4
2019-02-24T08:20:19.218Z,27.6
2019-02-24T08:21:11.086Z,27.8
2019-02-24T08:21:59.641Z,27.9
2019-02-24T08:22:49.618Z,28
2019-02-24T08:23:39.506Z,28
2019-02-24T08:24:31.365Z,28
2019-02-24T08:25:19.218Z,28
2019-02-24T08:26:24.561Z,27.9
2019-02-24T08:26:59.971Z,27.9
2019-02-24T08:27:50.329Z,28
2019-02-24T08:28:39.808Z,28.1
2019-02-24T08:29:29.332Z,28.3
2019-02-24T08:30:19.925Z,28.3
2019-02-24T08:31:10.220Z,28.3
2019-02-24T08:31:59.388Z,28.3
2019-02-24T08:32:50.077Z,28.3
2019-02-24T08:33:40.052Z,28.2
2019-02-24T08:34:30.136Z,28.1
2019-02-24T08:35:20.260Z,28.1
2019-02-24T08:36:10.280Z,28.3
2019-02-24T08:37:00.130Z,28.4
2019-02-24T08:37:49.815Z,28.5
2019-02-24T08:38:42.610Z,28.6
2019-02-24T08:39:30.534Z,28.6
2019-02-24T08:40:20.730Z,28.6
2019-02-24T08:41:10.382Z,28.5
2019-02-24T08:42:00.688Z,28.4
2019-02-24T08:42:51.307Z,28.3
2019-02-24T08:43:40.785Z,28.2
2019-02-24T08:44:33.433Z,28.2
2019-02-24T08:45:20.622Z,28.4
2019-02-24T08:46:10.702Z,28.5
2019-02-24T08:47:00.562Z,28.6
2019-02-24T08:47:50.449Z,28.6
2019-02-24T08:48:40.405Z,28.7
2019-02-24T08:49:30.937Z,28.6
2019-02-24T08:50:21.219Z,28.6
2019-02-24T08:51:11.310Z,28.5
2019-02-24T08:52:01.979Z,28.4
2019-02-24T08:52:51.667Z,28.6
2019-02-24T08:53:41.504Z,28.8
2019-02-24T08:54:31.782Z,28.8
2019-02-24T08:55:21.689Z,28.9
2019-02-24T08:56:11.512Z,28.9
2019-02-24T08:57:04.161Z,28.9
2019-02-24T08:57:51.999Z,28.9
2019-02-24T08:58:42.453Z,28.8
2019-02-24T08:59:31.912Z,28.7
2019-02-24T09:00:22.271Z,28.8
2019-02-24T09:01:12.234Z,28.9
2019-02-24T09:02:02.599Z,28.9
2019-02-24T09:02:54.109Z,29
2019-02-24T09:03:40.839Z,28.9
2019-02-24T09:04:32.494Z,28.9
2019-02-24T09:05:21.272Z,28.8
2019-02-24T09:06:12.853Z,28.7
2019-02-24T09:07:02.681Z,28.4
2019-02-24T09:07:52.719Z,28.3
2019-02-24T09:08:41.432Z,28
2019-02-24T09:10:23.126Z,27.6
2019-02-24T09:11:13.283Z,27.4
2019-02-24T09:12:02.043Z,27.2
2019-02-24T09:12:52.758Z,27.1
2019-02-24T09:13:42.848Z,26.9
2019-02-24T09:14:33.473Z,26.8
2019-02-24T09:15:23.248Z,26.6
2019-02-24T09:16:13.403Z,26.5
2019-02-24T09:17:03.345Z,26.4
2019-02-24T09:17:53.207Z,26.3
2019-02-24T09:18:43.474Z,26.3
2019-02-24T09:19:33.565Z,26.2
2019-02-24T09:20:23.723Z,26.1
2019-02-24T09:21:13.155Z,26
2019-02-24T09:22:03.252Z,25.9
2019-02-24T09:22:53.808Z,25.9
2019-02-24T09:23:43.222Z,25.8
2019-02-24T09:24:31.930Z,25.8
2019-02-24T09:25:23.160Z,25.8
2019-02-24T09:26:13.680Z,26.2
2019-02-24T09:27:03.735Z,26.7
2019-02-24T09:27:54.340Z,27.1
2019-02-24T09:28:43.828Z,27.5
2019-02-24T09:29:32.905Z,27.8
2019-02-24T09:30:23.457Z,27.9
2019-02-24T09:31:13.262Z,28.1
2019-02-24T09:32:03.005Z,28.3
2019-02-24T09:32:53.887Z,28.3
2019-02-24T09:33:44.780Z,28.3
2019-02-24T09:34:34.812Z,28.3
2019-02-24T09:35:23.323Z,28.2
2019-02-24T09:36:14.050Z,28.1
2019-02-24T09:37:04.117Z,28
2019-02-24T09:37:54.519Z,27.9
2019-02-24T09:38:44.584Z,27.7
2019-02-24T09:39:34.536Z,27.8
2019-02-24T09:40:24.592Z,28
2019-02-24T09:41:14.699Z,28.3
2019-02-24T09:42:04.874Z,28.5
2019-02-24T09:42:54.505Z,28.7
2019-02-24T09:43:45.107Z,28.8
2019-02-24T09:44:34.426Z,28.9
2019-02-24T09:45:25.514Z,28.9
2019-02-24T09:46:15.604Z,28.9
2019-02-24T09:47:05.617Z,28.9
2019-02-24T09:47:57.789Z,28.9
2019-02-24T09:48:45.479Z,29
2019-02-24T09:49:35.617Z,29.1
2019-02-24T09:50:25.834Z,29.2
2019-02-24T09:51:15.642Z,29.2
2019-02-24T09:52:05.421Z,29.2
2019-02-24T09:52:54.449Z,29.1
2019-02-24T09:53:46.136Z,29
2019-02-24T09:54:36.123Z,28.9
2019-02-24T09:55:25.918Z,29.1
2019-02-24T09:56:16.236Z,29.2
2019-02-24T09:57:05.461Z,29.4
2019-02-24T09:57:56.161Z,29.4
2019-02-24T09:58:46.418Z,29.5
2019-02-24T09:59:35.646Z,29.5
2019-02-24T10:00:28.728Z,29.5
2019-02-24T10:01:21.851Z,29.5
2019-02-24T10:02:06.633Z,29.4
2019-02-24T10:02:58.617Z,29.4
2019-02-24T10:03:45.366Z,29.3
2019-02-24T10:04:36.538Z,29.2
2019-02-24T10:07:04.346Z,29.6
2019-02-24T10:07:53.245Z,29.7
2019-02-24T10:08:44.705Z,29.8
2019-02-24T10:09:34.495Z,29.8
2019-02-24T10:10:24.238Z,29.8
2019-02-24T10:11:16.418Z,29.8
2019-02-24T10:12:04.425Z,29.8
2019-02-24T10:12:55.088Z,29.7
2019-02-24T10:13:44.302Z,29.6
2019-02-24T10:14:34.627Z,29.5
2019-02-24T10:15:24.937Z,29.5
2019-02-24T10:16:14.912Z,29.6
2019-02-24T10:17:04.480Z,29.7
2019-02-24T10:17:54.275Z,29.8
2019-02-24T10:18:44.808Z,29.8
2019-02-24T10:19:36.040Z,29.8
2019-02-24T10:20:25.490Z,29.7
2019-02-24T10:21:14.857Z,29.5
2019-02-24T10:22:04.540Z,29.4
2019-02-24T10:22:55.393Z,29.1
2019-02-24T10:23:44.895Z,28.9
2019-02-24T10:24:35.255Z,28.7
2019-02-24T10:25:25.590Z,28.5
2019-02-24T10:26:14.465Z,28.3
2019-02-24T10:27:05.922Z,28.1
2019-02-24T10:27:55.432Z,28
2019-02-24T10:28:47.613Z,27.9
2019-02-24T10:29:35.819Z,27.8
2019-02-24T10:30:25.899Z,27.6
2019-02-24T10:31:24.589Z,27.5
2019-02-24T10:32:05.106Z,27.3
2019-02-24T10:32:56.145Z,27
2019-02-24T10:33:45.874Z,26.8
2019-02-24T10:34:35.321Z,26.7
2019-02-24T10:35:25.122Z,26.6
2019-02-24T10:36:16.034Z,26.6
2019-02-24T10:37:06.361Z,26.4
2019-02-24T10:37:56.389Z,26.4
2019-02-24T10:38:46.448Z,26.4
2019-02-24T10:39:40.725Z,26.4
2019-02-24T10:40:25.831Z,26.4
2019-02-24T10:41:16.346Z,26.4
2019-02-24T10:42:07.011Z,26.3
2019-02-24T10:42:55.895Z,26.3
2019-02-24T10:43:46.541Z,26.3
2019-02-24T10:44:36.884Z,26.1
2019-02-24T10:45:26.636Z,26.1
2019-02-24T10:46:18.906Z,26.1
2019-02-24T10:47:09.629Z,25.9
2019-02-24T10:47:56.195Z,25.9
2019-02-24T10:48:46.644Z,25.9
2019-02-24T10:49:37.215Z,25.9
2019-02-24T10:50:26.976Z,25.9
2019-02-24T10:51:16.769Z,25.8
2019-02-24T10:52:06.593Z,25.8
2019-02-24T10:52:57.843Z,25.7
2019-02-24T10:53:47.471Z,25.7
2019-02-24T10:54:37.030Z,25.6
2019-02-24T10:55:27.904Z,25.6
2019-02-24T10:56:17.673Z,25.6
2019-02-24T10:57:13.663Z,25.6
2019-02-24T10:57:57.793Z,25.5
2019-02-24T10:58:47.565Z,25.5
2019-02-24T10:59:38.198Z,25.4
2019-02-24T11:00:27.312Z,25.4
2019-02-24T11:01:17.987Z,25.4
2019-02-24T11:02:07.823Z,25.4
2019-02-24T11:02:58.097Z,25.3
2019-02-24T11:03:48.217Z,25.3
2019-02-24T11:04:38.250Z,25.3
2019-02-24T11:05:28.053Z,25.3
2019-02-24T11:06:17.515Z,25.3
2019-02-24T11:07:07.857Z,25.1
2019-02-24T11:07:58.167Z,25.1
2019-02-24T11:08:48.568Z,25.2
2019-02-24T11:09:37.960Z,25.1
2019-02-24T11:10:28.910Z,25.1
2019-02-24T11:11:18.662Z,25.1
2019-02-24T11:12:11.068Z,25
2019-02-24T11:12:58.482Z,25.1
2019-02-24T11:13:48.872Z,25.1
2019-02-24T11:14:38.930Z,25
2019-02-24T11:15:27.730Z,25
2019-02-24T11:16:18.430Z,24.9
2019-02-24T11:17:22.634Z,24.8
2019-02-24T11:17:58.832Z,25
2019-02-24T11:18:48.449Z,24.9
2019-02-24T11:19:39.496Z,24.9
2019-02-24T11:20:29.062Z,24.9
2019-02-24T11:21:19.109Z,24.9
2019-02-24T11:22:08.624Z,24.9
2019-02-24T11:23:13.282Z,24.8